Aviation Digital Data Service (ADDS)

Output produced by TAFs form (1801 UTC 28 May 2015)
found at http://aviationweather.gov/adds/tafs/
 
KTUS 281722Z 2818/2918 VRB04KT P6SM SKC 
     FM282000 30008G16KT P6SM SKC 
     FM290300 32007KT P6SM SKC 
     FM290800 14006KT P6SM SCT250 
     FM291500 VRB04KT P6SM SCT250